createdAt,value
2022-11-17T00:02:23.655Z,7.91
2022-11-17T00:04:50.486Z,7.94
2022-11-17T00:07:17.360Z,7.92
2022-11-17T00:09:44.158Z,7.91
2022-11-17T00:12:32.801Z,7.88
2022-11-17T00:15:00.218Z,7.90
2022-11-17T00:17:27.559Z,7.81
2022-11-17T00:20:13.122Z,7.91
2022-11-17T00:22:39.958Z,7.92
2022-11-17T00:25:06.986Z,7.93
2022-11-17T00:27:33.790Z,7.84
2022-11-17T00:30:00.652Z,7.92
2022-11-17T00:32:46.365Z,7.83
2022-11-17T00:35:13.396Z,7.90
2022-11-17T00:38:04.220Z,7.91
2022-11-17T00:40:31.113Z,7.90
2022-11-17T00:42:57.963Z,7.88
2022-11-17T00:45:24.764Z,7.89
2022-11-17T00:47:51.529Z,7.87
2022-11-17T00:50:18.352Z,7.91
2022-11-17T00:52:45.208Z,7.92
2022-11-17T00:55:12.079Z,7.93
2022-11-17T00:57:38.894Z,7.89
2022-11-17T01:00:06.560Z,7.88
2022-11-17T01:02:33.536Z,7.90
2022-11-17T01:05:00.400Z,7.89
2022-11-17T01:07:27.305Z,7.89
2022-11-17T01:09:54.259Z,7.86
2022-11-17T01:12:21.093Z,7.88
2022-11-17T01:14:47.829Z,7.86
2022-11-17T01:17:14.620Z,7.84
2022-11-17T01:19:41.357Z,7.84
2022-11-17T01:22:08.208Z,7.78
2022-11-17T01:24:35.027Z,7.80
2022-11-17T01:27:02.118Z,7.80
2022-11-17T01:29:29.012Z,7.78
2022-11-17T01:31:55.808Z,7.80
2022-11-17T01:34:22.686Z,7.69
2022-11-17T01:37:08.300Z,7.79
2022-11-17T01:39:35.247Z,7.68
2022-11-17T01:42:18.307Z,7.80
2022-11-17T01:44:57.269Z,7.78
2022-11-17T01:47:42.585Z,7.76
2022-11-17T01:50:30.139Z,7.76
2022-11-17T01:53:00.444Z,7.74
2022-11-17T01:55:37.139Z,7.63
2022-11-17T01:58:34.987Z,7.74
2022-11-17T02:01:02.327Z,7.72
2022-11-17T02:03:34.718Z,7.71
2022-11-17T02:06:08.544Z,7.71
2022-11-17T02:08:38.834Z,7.71
2022-11-17T02:11:36.249Z,7.72
2022-11-17T02:14:05.321Z,7.71
2022-11-17T02:16:32.166Z,7.69
2022-11-17T02:18:59.007Z,7.71
2022-11-17T02:21:47.520Z,7.69
2022-11-17T02:24:33.308Z,7.74
2022-11-17T02:27:25.016Z,7.64
2022-11-17T02:30:06.438Z,7.75
2022-11-17T02:32:50.759Z,7.76
2022-11-17T02:35:35.916Z,7.74
2022-11-17T02:38:12.657Z,7.70
2022-11-17T02:41:05.303Z,7.72
2022-11-17T02:44:00.043Z,7.74
2022-11-17T02:46:30.716Z,7.68
2022-11-17T02:49:02.747Z,7.74
2022-11-17T02:51:31.069Z,7.64
2022-11-17T02:54:00.160Z,7.65
2022-11-17T02:56:27.035Z,7.71
2022-11-17T02:59:00.252Z,7.70
2022-11-17T03:01:43.305Z,7.68
2022-11-17T03:04:32.269Z,7.70
2022-11-17T03:07:16.083Z,7.68
2022-11-17T03:10:21.845Z,7.68
2022-11-17T03:13:11.915Z,7.65
2022-11-17T03:15:55.405Z,7.69
2022-11-17T03:18:35.407Z,7.59
2022-11-17T03:21:20.208Z,7.55
2022-11-17T03:24:08.972Z,7.61
2022-11-17T03:26:41.110Z,7.53
2022-11-17T03:29:12.582Z,7.57
2022-11-17T03:31:41.662Z,7.51
2022-11-17T03:34:14.189Z,7.56
2022-11-17T03:36:47.191Z,7.49
2022-11-17T03:39:25.859Z,7.51
2022-11-17T03:41:59.644Z,7.54
2022-11-17T03:44:31.302Z,7.49
2022-11-17T03:49:57.635Z,7.40
2022-11-17T03:52:25.294Z,7.33
2022-11-17T03:54:53.255Z,7.27
2022-11-17T03:57:26.689Z,7.10
2022-11-17T04:00:04.431Z,7.11
2022-11-17T04:02:31.597Z,7.03
2022-11-17T04:05:07.500Z,6.92
2022-11-17T04:07:45.368Z,6.90
2022-11-17T04:10:20.860Z,6.82
2022-11-17T04:13:07.616Z,6.87
2022-11-17T04:15:53.092Z,6.90
2022-11-17T04:18:20.956Z,6.90
2022-11-17T04:20:53.221Z,6.86
2022-11-17T04:23:20.744Z,6.78
2022-11-17T04:26:08.545Z,6.71
2022-11-17T04:28:37.497Z,6.70
2022-11-17T04:31:08.859Z,6.69
2022-11-17T04:33:39.248Z,6.63
2022-11-17T04:36:07.362Z,6.57
2022-11-17T04:38:35.085Z,6.52
2022-11-17T04:41:23.109Z,6.50
2022-11-17T04:43:50.441Z,6.49
2022-11-17T04:46:18.612Z,6.47
2022-11-17T04:48:46.474Z,6.47
2022-11-17T04:51:14.215Z,6.49
2022-11-17T04:53:41.513Z,6.53
2022-11-17T04:56:08.627Z,6.53
2022-11-17T04:58:35.758Z,6.54
2022-11-17T05:01:15.926Z,6.55
2022-11-17T05:03:46.167Z,6.53
2022-11-17T05:06:15.853Z,6.52
2022-11-17T05:08:44.054Z,6.49
2022-11-17T05:11:32.020Z,6.42
2022-11-17T05:13:59.375Z,6.37
2022-11-17T05:16:45.024Z,6.38
2022-11-17T05:19:20.234Z,6.36
2022-11-17T05:21:47.313Z,6.36
2022-11-17T05:24:14.826Z,6.33
2022-11-17T05:26:43.254Z,6.42
2022-11-17T05:29:12.807Z,6.48
2022-11-17T05:31:40.242Z,6.43
2022-11-17T05:34:08.616Z,6.57
2022-11-17T05:36:36.176Z,6.59
2022-11-17T05:39:03.836Z,6.57
2022-11-17T05:41:31.147Z,6.67
2022-11-17T05:43:59.128Z,6.71
2022-11-17T05:46:26.839Z,6.71
2022-11-17T05:48:54.191Z,6.71
2022-11-17T05:51:23.709Z,6.71
2022-11-17T05:53:51.114Z,6.72
2022-11-17T05:56:35.874Z,6.72
2022-11-17T05:59:15.914Z,6.69
2022-11-17T06:01:49.204Z,6.68
2022-11-17T06:04:19.556Z,6.65
2022-11-17T06:06:47.705Z,6.67
2022-11-17T06:09:15.131Z,6.64
2022-11-17T06:11:41.980Z,6.57
2022-11-17T06:14:08.952Z,6.57
2022-11-17T06:16:40.804Z,6.55
2022-11-17T06:19:18.008Z,6.55
2022-11-17T06:22:10.473Z,6.54
2022-11-17T06:24:33.350Z,6.53
2022-11-17T06:27:00.850Z,6.53
2022-11-17T06:29:29.567Z,6.49
2022-11-17T06:31:58.199Z,6.51
2022-11-17T06:34:26.757Z,6.51
2022-11-17T06:36:53.727Z,6.51
2022-11-17T06:39:20.650Z,6.55
2022-11-17T06:41:47.530Z,6.46
2022-11-17T06:44:14.287Z,6.54
2022-11-17T06:46:44.798Z,6.57
2022-11-17T06:49:14.550Z,6.64
2022-11-17T06:51:45.845Z,6.80
2022-11-17T06:54:14.851Z,6.87
2022-11-17T06:56:42.626Z,6.82
2022-11-17T06:59:09.563Z,6.68
2022-11-17T07:01:37.764Z,6.62
2022-11-17T07:04:04.824Z,6.63
2022-11-17T07:06:32.244Z,6.53
2022-11-17T07:08:59.147Z,6.46
2022-11-17T07:11:26.028Z,6.34
2022-11-17T07:13:52.961Z,6.61
2022-11-17T07:16:23.969Z,6.82
2022-11-17T07:18:53.051Z,7.10
2022-11-17T07:21:22.424Z,7.47
2022-11-17T07:23:49.309Z,7.89
2022-11-17T07:26:16.217Z,8.32
2022-11-17T07:28:43.836Z,8.72
2022-11-17T07:31:10.739Z,9.28
2022-11-17T07:33:37.621Z,9.61
2022-11-17T07:36:10.032Z,9.92
2022-11-17T07:38:39.170Z,10.23
2022-11-17T07:41:08.870Z,10.63
2022-11-17T07:43:36.714Z,10.93
2022-11-17T07:46:08.501Z,10.88
2022-11-17T07:48:35.657Z,11.16
2022-11-17T07:51:04.361Z,11.21
2022-11-17T07:53:33.368Z,10.81
2022-11-17T07:56:08.901Z,11.02
2022-11-17T07:58:36.818Z,10.97
2022-11-17T08:01:15.615Z,11.21
2022-11-17T08:03:43.409Z,11.17
2022-11-17T08:06:10.429Z,11.14
2022-11-17T08:08:38.622Z,11.61
2022-11-17T08:11:10.900Z,11.48
2022-11-17T08:13:39.617Z,11.97
2022-11-17T08:16:07.530Z,12.25
2022-11-17T08:18:35.173Z,12.08
2022-11-17T08:21:04.498Z,12.16
2022-11-17T08:23:31.379Z,12.05
2022-11-17T08:25:58.624Z,12.03
2022-11-17T08:28:26.270Z,12.55
2022-11-17T08:30:53.222Z,12.67
2022-11-17T08:33:20.067Z,13.13
2022-11-17T08:35:46.882Z,12.90
2022-11-17T08:38:15.559Z,13.22
2022-11-17T08:40:42.379Z,12.74
2022-11-17T08:43:09.192Z,12.81
2022-11-17T08:45:35.952Z,12.77
2022-11-17T08:48:04.189Z,13.11
2022-11-17T08:50:31.109Z,13.40
2022-11-17T08:52:57.866Z,12.73
2022-11-17T08:55:26.261Z,13.20
2022-11-17T08:57:53.304Z,13.45
2022-11-17T09:00:21.856Z,13.77
2022-11-17T09:02:48.794Z,13.40
2022-11-17T09:05:15.572Z,13.92
2022-11-17T09:07:42.407Z,13.64
2022-11-17T09:10:11.149Z,13.52
2022-11-17T09:12:38.216Z,13.55
2022-11-17T09:15:05.688Z,14.48
2022-11-17T09:17:32.789Z,14.92
2022-11-17T09:19:59.748Z,14.84
2022-11-17T09:22:26.570Z,14.57
2022-11-17T09:24:53.478Z,14.71
2022-11-17T09:27:20.282Z,13.90
2022-11-17T09:29:47.993Z,13.64
2022-11-17T09:32:16.872Z,14.20
2022-11-17T09:34:43.970Z,14.40
2022-11-17T09:37:10.754Z,14.10
2022-11-17T09:39:37.580Z,14.03
2022-11-17T09:42:04.642Z,13.67
2022-11-17T09:44:31.326Z,13.50
2022-11-17T09:47:15.277Z,13.28
2022-11-17T09:49:58.116Z,13.01
2022-11-17T09:52:28.505Z,13.40
2022-11-17T09:54:58.350Z,13.52
2022-11-17T09:57:31.159Z,13.57
2022-11-17T10:00:27.661Z,13.06
2022-11-17T10:02:55.556Z,12.56
2022-11-17T10:05:29.737Z,12.72
2022-11-17T10:08:03.528Z,12.60
2022-11-17T10:10:45.019Z,12.73
2022-11-17T10:13:23.739Z,13.56
2022-11-17T10:15:55.773Z,14.18
2022-11-17T10:18:22.773Z,14.86
2022-11-17T10:20:51.324Z,15.69
2022-11-17T10:23:20.284Z,16.60
2022-11-17T10:25:58.151Z,17.10
2022-11-17T10:28:30.899Z,17.05
2022-11-17T10:31:01.853Z,17.48
2022-11-17T10:33:49.995Z,17.42
2022-11-17T10:36:29.935Z,17.16
2022-11-17T10:38:59.752Z,17.56
2022-11-17T10:41:39.222Z,17.75
2022-11-17T10:44:16.547Z,18.11
2022-11-17T10:47:04.352Z,17.04
2022-11-17T10:49:34.792Z,16.14
2022-11-17T10:52:05.640Z,16.44
2022-11-17T10:54:32.495Z,16.69
2022-11-17T10:57:00.647Z,16.64
2022-11-17T10:59:33.159Z,15.94
2022-11-17T11:02:25.741Z,15.88
2022-11-17T11:05:17.102Z,16.03
2022-11-17T11:07:44.609Z,16.36
2022-11-17T11:10:14.706Z,16.54
2022-11-17T11:13:02.850Z,15.71
2022-11-17T11:15:36.137Z,15.60
2022-11-17T11:18:12.413Z,15.46
2022-11-17T11:21:34.559Z,14.46
2022-11-17T11:24:10.471Z,13.37
2022-11-17T11:27:04.961Z,12.47
2022-11-17T11:29:51.034Z,12.27
2022-11-17T11:32:25.350Z,11.75
2022-11-17T11:35:04.247Z,12.17
2022-11-17T11:37:41.527Z,12.66
2022-11-17T11:40:22.253Z,12.67
2022-11-17T11:43:06.414Z,12.40
2022-11-17T11:45:53.597Z,12.70
2022-11-17T11:48:27.677Z,12.62
2022-11-17T11:51:02.107Z,12.38
2022-11-17T11:53:37.688Z,11.91
2022-11-17T11:56:27.545Z,11.38
2022-11-17T11:59:02.206Z,11.23
2022-11-17T12:01:41.472Z,11.38
2022-11-17T12:04:25.538Z,11.29
2022-11-17T12:07:21.288Z,11.56
2022-11-17T12:10:35.119Z,11.60
2022-11-17T12:13:04.447Z,11.78
2022-11-17T12:15:35.856Z,11.73
2022-11-17T12:18:19.445Z,11.88
2022-11-17T12:21:13.944Z,12.30
2022-11-17T12:24:23.584Z,12.61
2022-11-17T12:26:50.448Z,12.66
2022-11-17T12:29:20.181Z,12.72
2022-11-17T12:31:48.997Z,12.20
2022-11-17T12:34:20.977Z,12.24
2022-11-17T12:37:06.346Z,11.92
2022-11-17T12:39:51.604Z,11.95
2022-11-17T12:42:18.495Z,12.33
2022-11-17T12:44:50.039Z,12.44
2022-11-17T12:47:18.296Z,12.80
2022-11-17T12:49:53.334Z,12.72
2022-11-17T12:52:45.338Z,12.75
2022-11-17T12:55:39.898Z,13.76
2022-11-17T12:58:15.447Z,15.06
2022-11-17T13:01:09.020Z,15.06
2022-11-17T13:03:45.058Z,15.95
2022-11-17T13:09:12.313Z,15.29
2022-11-17T13:11:39.141Z,15.01
2022-11-17T13:14:17.064Z,13.69
2022-11-17T13:16:50.059Z,12.93
2022-11-17T13:19:34.381Z,12.47
2022-11-17T13:22:06.609Z,12.58
2022-11-17T13:24:36.180Z,12.63
2022-11-17T13:27:09.508Z,12.82
2022-11-17T13:29:36.412Z,12.52
2022-11-17T13:32:16.534Z,12.27
2022-11-17T13:35:01.798Z,12.10
2022-11-17T13:37:29.979Z,12.23
2022-11-17T13:40:03.055Z,12.14
2022-11-17T13:42:33.219Z,12.20
2022-11-17T13:45:03.016Z,12.31
2022-11-17T13:47:39.494Z,12.61
2022-11-17T13:50:24.157Z,12.72
2022-11-17T13:52:54.700Z,12.61
2022-11-17T13:55:24.142Z,12.43
2022-11-17T13:58:24.482Z,12.38
2022-11-17T14:00:56.285Z,12.37
2022-11-17T14:03:37.968Z,12.47
2022-11-17T14:06:07.625Z,12.50
2022-11-17T14:08:36.273Z,12.39
2022-11-17T14:11:12.132Z,12.15
2022-11-17T14:14:01.252Z,11.97
2022-11-17T14:16:38.806Z,11.90
2022-11-17T14:19:26.146Z,11.74
2022-11-17T14:22:31.023Z,11.62
2022-11-17T14:24:58.450Z,11.41
2022-11-17T14:27:31.838Z,11.06
2022-11-17T14:29:58.811Z,11.22
2022-11-17T14:32:25.658Z,11.15
2022-11-17T14:34:52.444Z,10.95
2022-11-17T14:37:19.299Z,10.98
2022-11-17T14:39:46.267Z,10.72
2022-11-17T14:42:13.052Z,10.77
2022-11-17T14:44:39.784Z,10.70
2022-11-17T14:47:06.609Z,10.63
2022-11-17T14:49:33.440Z,10.60
2022-11-17T14:52:00.475Z,10.59
2022-11-17T14:54:27.274Z,10.55
2022-11-17T14:56:54.145Z,10.51
2022-11-17T14:59:20.888Z,10.47
2022-11-17T15:01:47.774Z,10.41
2022-11-17T15:04:48.398Z,10.34
2022-11-17T15:07:03.262Z,10.30
2022-11-17T15:09:31.525Z,10.26
2022-11-17T15:11:58.390Z,10.15
2022-11-17T15:14:25.307Z,10.15
2022-11-17T15:16:52.067Z,10.05
2022-11-17T15:19:19.017Z,10.05
2022-11-17T15:21:45.867Z,10.01
2022-11-17T15:24:13.167Z,9.98
2022-11-17T15:26:40.499Z,9.88
2022-11-17T15:29:07.315Z,9.83
2022-11-17T15:31:34.505Z,9.63
2022-11-17T15:34:01.225Z,9.46
2022-11-17T15:36:28.124Z,9.33
2022-11-17T15:38:56.415Z,9.34
2022-11-17T15:41:23.639Z,9.29
2022-11-17T15:43:51.504Z,9.28
2022-11-17T15:46:18.946Z,9.31
2022-11-17T15:48:47.543Z,9.41
2022-11-17T15:51:16.893Z,9.44
2022-11-17T15:53:45.082Z,9.50
2022-11-17T15:56:19.459Z,9.53
2022-11-17T15:58:47.392Z,9.57
2022-11-17T16:01:28.368Z,9.58
2022-11-17T16:04:04.977Z,9.52
2022-11-17T16:06:33.551Z,9.42
2022-11-17T16:09:01.231Z,9.32
2022-11-17T16:11:28.477Z,9.27
2022-11-17T16:13:59.831Z,9.15
2022-11-17T16:16:31.717Z,9.18
2022-11-17T16:18:59.151Z,9.14
2022-11-17T16:21:26.054Z,9.01
2022-11-17T16:23:55.983Z,8.83
2022-11-17T16:26:25.222Z,8.69
2022-11-17T16:29:06.775Z,8.49
2022-11-17T16:31:35.650Z,8.67
2022-11-17T16:34:05.311Z,8.70
2022-11-17T16:36:36.760Z,8.77
2022-11-17T16:39:06.742Z,8.76
2022-11-17T16:41:41.493Z,8.76
2022-11-17T16:44:11.995Z,8.71
2022-11-17T16:46:42.187Z,8.51
2022-11-17T16:49:11.977Z,8.55
2022-11-17T16:51:39.448Z,8.50
2022-11-17T16:54:10.791Z,8.58
2022-11-17T16:56:37.653Z,8.74
2022-11-17T16:59:05.028Z,8.76
2022-11-17T17:01:34.979Z,8.80
2022-11-17T17:04:04.758Z,8.75
2022-11-17T17:06:32.026Z,8.75
2022-11-17T17:09:01.539Z,8.80
2022-11-17T17:11:31.799Z,8.85
2022-11-17T17:14:03.452Z,8.83
2022-11-17T17:16:32.761Z,8.98
2022-11-17T17:19:01.967Z,9.02
2022-11-17T17:21:30.186Z,9.01
2022-11-17T17:23:58.063Z,9.00
2022-11-17T17:26:27.565Z,9.02
2022-11-17T17:28:57.164Z,9.03
2022-11-17T17:31:26.358Z,9.05
2022-11-17T17:33:55.276Z,9.08
2022-11-17T17:36:24.785Z,9.08
2022-11-17T17:38:56.251Z,9.08
2022-11-17T17:41:29.576Z,8.96
2022-11-17T17:44:02.599Z,8.89
2022-11-17T17:46:31.161Z,8.86
2022-11-17T17:48:58.571Z,8.85
2022-11-17T17:51:27.933Z,8.98
2022-11-17T17:53:58.189Z,8.96
2022-11-17T17:56:25.485Z,9.04
2022-11-17T17:58:55.243Z,9.01
2022-11-17T18:01:24.928Z,8.98
2022-11-17T18:03:54.343Z,8.94
2022-11-17T18:06:22.614Z,8.95
2022-11-17T18:08:50.045Z,8.93
2022-11-17T18:11:20.366Z,8.96
2022-11-17T18:13:49.875Z,8.82
2022-11-17T18:16:18.360Z,8.75
2022-11-17T18:18:47.606Z,8.78
2022-11-17T18:21:17.434Z,8.61
2022-11-17T18:23:44.920Z,8.75
2022-11-17T18:26:18.208Z,8.72
2022-11-17T18:28:51.522Z,8.58
2022-11-17T18:31:19.434Z,8.53
2022-11-17T18:33:50.681Z,8.47
2022-11-17T18:36:17.577Z,8.66
2022-11-17T18:38:44.478Z,8.76
2022-11-17T18:41:14.440Z,8.81
2022-11-17T18:43:43.339Z,8.87
2022-11-17T18:46:13.257Z,8.92
2022-11-17T18:48:42.814Z,8.92
2022-11-17T18:51:20.615Z,8.81
2022-11-17T18:53:52.714Z,8.84
2022-11-17T18:56:25.483Z,8.65
2022-11-17T18:58:53.427Z,8.67
2022-11-17T19:01:24.039Z,8.64
2022-11-17T19:03:53.951Z,8.57
2022-11-17T19:06:23.306Z,8.51
2022-11-17T19:08:51.989Z,8.48
2022-11-17T19:11:21.387Z,8.61
2022-11-17T19:13:49.238Z,8.58
2022-11-17T19:16:18.291Z,8.61
2022-11-17T19:18:47.745Z,8.69
2022-11-17T19:21:17.745Z,8.71
2022-11-17T19:23:51.028Z,8.72
2022-11-17T19:26:24.928Z,8.78
2022-11-17T19:28:57.612Z,8.74
2022-11-17T19:31:26.163Z,8.70
2022-11-17T19:33:54.223Z,8.72
2022-11-17T19:36:29.870Z,8.75
2022-11-17T19:39:00.046Z,8.64
2022-11-17T19:41:32.415Z,8.73
2022-11-17T19:44:01.995Z,8.76
2022-11-17T19:46:30.861Z,8.74
2022-11-17T19:49:00.311Z,8.72
2022-11-17T19:51:37.359Z,8.74
2022-11-17T19:54:07.599Z,8.76
2022-11-17T19:56:35.783Z,8.75
2022-11-17T19:59:04.179Z,8.75
2022-11-17T20:01:32.905Z,8.73
2022-11-17T20:04:02.087Z,8.74
2022-11-17T20:06:36.548Z,8.62
2022-11-17T20:09:12.335Z,8.65
2022-11-17T20:11:40.538Z,8.62
2022-11-17T20:14:08.040Z,8.64
2022-11-17T20:16:37.211Z,8.61
2022-11-17T20:19:05.248Z,8.68
2022-11-17T20:21:32.464Z,8.68
2022-11-17T20:24:00.808Z,8.64
2022-11-17T20:26:30.813Z,8.69
2022-11-17T20:29:07.757Z,8.57
2022-11-17T20:31:36.483Z,8.60
2022-11-17T20:34:05.362Z,8.62
2022-11-17T20:36:35.155Z,8.60
2022-11-17T20:39:04.785Z,8.64
2022-11-17T20:41:32.157Z,8.57
2022-11-17T20:44:01.093Z,8.51
2022-11-17T20:46:28.078Z,8.46
2022-11-17T20:48:55.241Z,8.41
2022-11-17T20:51:25.093Z,8.45
2022-11-17T20:53:52.417Z,8.55
2022-11-17T20:56:19.891Z,8.53
2022-11-17T20:58:48.263Z,8.59
2022-11-17T21:01:18.514Z,8.49
2022-11-17T21:03:46.007Z,8.64
2022-11-17T21:06:14.145Z,8.60
2022-11-17T21:08:42.911Z,8.66
2022-11-17T21:11:32.027Z,8.60
2022-11-17T21:13:59.615Z,8.66
2022-11-17T21:16:26.654Z,8.66
2022-11-17T21:18:53.538Z,8.69
2022-11-17T21:21:20.324Z,8.71
2022-11-17T21:23:47.143Z,8.63
2022-11-17T21:26:17.177Z,8.55
2022-11-17T21:28:44.048Z,8.63
2022-11-17T21:31:14.575Z,8.58
2022-11-17T21:33:42.544Z,8.70
2022-11-17T21:36:11.607Z,8.64
2022-11-17T21:38:39.255Z,8.65
2022-11-17T21:41:13.149Z,8.63
2022-11-17T21:43:41.359Z,8.56
2022-11-17T21:46:11.817Z,8.55
2022-11-17T21:48:39.261Z,8.50
2022-11-17T21:51:12.703Z,8.49
2022-11-17T21:53:39.522Z,8.50
2022-11-17T21:56:07.697Z,8.55
2022-11-17T21:58:34.826Z,8.55
2022-11-17T22:01:10.311Z,8.49
2022-11-17T22:03:37.619Z,8.57
2022-11-17T22:06:09.435Z,8.47
2022-11-17T22:08:38.270Z,8.49
2022-11-17T22:11:07.671Z,8.53
2022-11-17T22:13:35.181Z,8.51
2022-11-17T22:16:08.539Z,8.43
2022-11-17T22:18:35.696Z,8.43
2022-11-17T22:21:02.634Z,8.28
2022-11-17T22:23:29.490Z,8.31
2022-11-17T22:26:00.947Z,8.25
2022-11-17T22:28:27.993Z,8.20
2022-11-17T22:30:55.798Z,8.09
2022-11-17T22:33:23.103Z,8.04
2022-11-17T22:35:50.543Z,7.90
2022-11-17T22:38:17.799Z,7.95
2022-11-17T22:40:44.652Z,7.91
2022-11-17T22:43:14.872Z,7.85
2022-11-17T22:45:41.950Z,7.72
2022-11-17T22:48:09.018Z,7.67
2022-11-17T22:50:36.661Z,7.57
2022-11-17T22:53:03.646Z,7.48
2022-11-17T22:55:32.838Z,7.43
2022-11-17T22:57:59.965Z,7.24
2022-11-17T23:00:26.905Z,7.22
2022-11-17T23:02:53.732Z,7.24
2022-11-17T23:05:20.611Z,7.17
2022-11-17T23:07:47.374Z,7.11
2022-11-17T23:10:14.485Z,7.15
2022-11-17T23:12:41.482Z,7.07
2022-11-17T23:15:08.848Z,7.02
2022-11-17T23:17:35.727Z,6.97
2022-11-17T23:20:02.771Z,6.93
2022-11-17T23:22:29.723Z,6.87
2022-11-17T23:24:56.450Z,6.79
2022-11-17T23:27:23.349Z,6.69
2022-11-17T23:29:50.237Z,6.63
2022-11-17T23:32:17.199Z,6.60
2022-11-17T23:34:44.058Z,6.56
2022-11-17T23:37:11.326Z,6.48
2022-11-17T23:39:38.454Z,6.51
2022-11-17T23:42:05.534Z,6.36
2022-11-17T23:44:32.316Z,6.37
2022-11-17T23:46:59.191Z,6.33
2022-11-17T23:49:26.361Z,6.29
2022-11-17T23:51:53.125Z,6.28
2022-11-17T23:54:19.979Z,6.27
2022-11-17T23:56:48.943Z,6.26
2022-11-17T23:59:16.020Z,6.29
